Silver Mariner — V7XQ6 — position and weather

sailwx.info

Track history (hours):
 
Tides and Currents Weather Stations Pressure Air Temp Water Temp Dewpoint Dewpoint Depression Visibility Wind Speed Wind Dir Waves Ship Positions

Silver Mariner

Last reported at 2017-Oct-16 08:44 UTC. Time now 2017-Oct-17 01:24 UTC.
Position N 22°13' E 120°13'.

Length 288 m; draft 8.6 m.

Type: Cargo ship. MMSI: 538004545.

Date/timePositionNaut miles runAvg speedWind from/ knotsBaromVisibWave heightAir tempDewpointWater temp
2017-Oct-16 08:44N 22°13' E 120°13'313.7
2017-Oct-16 08:30N 22°16' E 120°13'713.8
2017-Oct-16 08:00N 22°23' E 120°13'714.4
2017-Oct-16 07:30N 22°30' E 120°13'611.2
2017-Oct-16 07:00N 22°33' E 120°18'1 2.0
2017-Oct-16 06:30N 22°33' E 120°20'0 0.0
2017-Oct-16 06:00N 22°33' E 120°20'0 0.0
2017-Oct-16 05:30N 22°33' E 120°20'0 0.0
2017-Oct-16 05:00N 22°33' E 120°20'0 0.0
2017-Oct-16 04:30N 22°33' E 120°20'0 0.0
2017-Oct-16 04:00N 22°33' E 120°20'0 0.0
2017-Oct-16 03:30N 22°33' E 120°20'0 0.0
2017-Oct-16 03:00N 22°33' E 120°20'0 0.0
2017-Oct-16 02:30N 22°33' E 120°20'0 0.0
2017-Oct-16 02:00N 22°33' E 120°20'0 0.0
2017-Oct-16 01:24N 22°33' E 120°20'0 0.0
2017-Oct-16 01:00N 22°33' E 120°20'0 0.0
2017-Oct-16 00:30N 22°33' E 120°20'0 0.0
2017-Oct-15 23:57N 22°33' E 120°20'0 0.0
2017-Oct-15 23:27N 22°33' E 120°20'0 0.0
2017-Oct-15 23:00N 22°33' E 120°20'3 5.2
2017-Oct-15 22:30N 22°33' E 120°17'4 7.9
2017-Oct-15 22:00N 22°32' E 120°12'4 7.5
2017-Oct-15 21:30N 22°33' E 120°09'1 3.0
2017-Oct-15 21:00N 22°34' E 120°08'2 3.9
2017-Oct-15 20:30N 22°36' E 120°08'713.0
2017-Oct-15 20:00N 22°42' E 120°05'612.9
2017-Oct-15 19:30N 22°48' E 120°02'712.1
2017-Oct-15 18:58N 22°54' E 119°58'  
2017-Oct-12 21:06N 33°52' E 134°57'416.9
2017-Oct-12 20:53N 33°56' E 134°57'616.7
2017-Oct-12 20:30N 34°02' E 134°57'816.6
2017-Oct-12 20:00N 34°11' E 134°57'714.3
2017-Oct-12 19:30N 34°18' E 134°58'816.0
2017-Oct-12 19:00N 34°25' E 135°03'817.0
2017-Oct-12 18:30N 34°30' E 135°11'816.7
2017-Oct-12 18:00N 34°37' E 135°16'4 7.6
2017-Oct-12 17:30N 34°41' E 135°18'0 0.4
2017-Oct-12 16:52N 34°41' E 135°17'0 0.0
2017-Oct-12 16:28N 34°41' E 135°17'0 0.0
2017-Oct-12 15:58N 34°41' E 135°17'0 0.0
2017-Oct-12 15:28N 34°41' E 135°17'0 0.0
2017-Oct-12 14:58N 34°41' E 135°17'0 0.0
2017-Oct-12 14:28N 34°41' E 135°17'0 0.0
2017-Oct-12 13:58N 34°41' E 135°17'0 0.0
2017-Oct-12 13:28N 34°41' E 135°17'0 0.0
2017-Oct-12 12:58N 34°41' E 135°17'0 0.0
2017-Oct-12 12:28N 34°41' E 135°17'0 0.0
2017-Oct-12 11:46N 34°41' E 135°17'0 0.0
2017-Oct-12 11:28N 34°41' E 135°17'0 0.0
2017-Oct-12 10:58N 34°41' E 135°17'0 0.0
2017-Oct-12 10:28N 34°41' E 135°17'0 0.1
2017-Oct-12 10:00N 34°41' E 135°17'2 4.1
2017-Oct-12 09:30N 34°39' E 135°19'3 5.9
2017-Oct-12 09:01N 34°36' E 135°18'5 9.9
2017-Oct-12 08:30N 34°32' E 135°15'714.2
2017-Oct-12 08:00N 34°27' E 135°09'714.2
2017-Oct-12 07:30N 34°22' E 135°03'713.9
2017-Oct-12 07:00N 34°16' E 134°59'612.7
2017-Oct-12 06:30N 34°09' E 134°60'5 9.2
2017-Oct-12 06:00N 34°05' E 134°60'4 7.5
2017-Oct-12 05:30N 34°01' E 135°00'510.5
2017-Oct-12 04:58N 33°55' E 134°60'237 8.2
2017-Oct-11 00:00N 34°55' E 139°38'611.1
2017-Oct-10 23:30N 34°60' E 139°41'510.6
2017-Oct-10 23:00N 35°05' E 139°43'510.7
2017-Oct-10 22:30N 35°10' E 139°45'510.7
2017-Oct-10 22:00N 35°15' E 139°46'612.0
2017-Oct-10 21:30N 35°20' E 139°42'4 7.8
2017-Oct-10 21:00N 35°24' E 139°41'0 0.7
2017-Oct-10 20:27N 35°24' E 139°41'0 0.0
2017-Oct-10 19:57N 35°24' E 139°41'0 0.0
2017-Oct-10 19:27N 35°24' E 139°41'0 0.0
2017-Oct-10 17:57N 35°24' E 139°41'0 0.0
2017-Oct-10 17:21N 35°24' E 139°41'0 0.1
2017-Oct-10 16:57N 35°24' E 139°41'0 0.0
2017-Oct-10 16:09N 35°24' E 139°41'0 0.0
2017-Oct-10 15:57N 35°24' E 139°41'0 0.1
2017-Oct-10 15:15N 35°24' E 139°41'0 0.1
2017-Oct-10 14:45N 35°24' E 139°41'0 0.1
2017-Oct-10 13:57N 35°24' E 139°41'0 0.1
2017-Oct-10 13:27N 35°24' E 139°41'0 0.1
2017-Oct-10 12:57N 35°24' E 139°41'0 0.0
2017-Oct-10 12:27N 35°24' E 139°41'0 0.0
2017-Oct-10 11:45N 35°24' E 139°41'0 0.0
2017-Oct-10 11:27N 35°24' E 139°41'0 0.1
2017-Oct-10 10:51N 35°24' E 139°41'0 0.0
2017-Oct-10 10:21N 35°24' E 139°41'0 0.0
2017-Oct-10 09:57N 35°24' E 139°41'0 0.0
2017-Oct-10 09:27N 35°24' E 139°41'1 1.8
2017-Oct-10 09:00N 35°23' E 139°41'510.8
2017-Oct-10 08:31N 35°27' E 139°46'8 9.8
2017-Oct-10 07:42N 35°35' E 139°48'2 9.2
2017-Oct-10 07:28N 35°36' E 139°46'0 0.3
2017-Oct-10 06:56N 35°36' E 139°46'0 0.0
2017-Oct-10 06:29N 35°36' E 139°46'0 0.0
2017-Oct-10 05:47N 35°36' E 139°46'0 0.0
2017-Oct-10 05:17N 35°36' E 139°46'0 0.0
2017-Oct-10 04:50N 35°36' E 139°46'0 0.0
2017-Oct-10 04:29N 35°36' E 139°46'0 0.1
2017-Oct-10 03:56N 35°36' E 139°46'0 0.1
2017-Oct-10 03:29N 35°36' E 139°46'0 0.0
2017-Oct-10 02:56N 35°36' E 139°46'0 0.0
2017-Oct-10 02:29N 35°36' E 139°46'0 0.1
2017-Oct-10 01:56N 35°36' E 139°46'0 0.0
2017-Oct-10 01:26N 35°36' E 139°46'0 0.0
2017-Oct-10 00:44N 35°36' E 139°46'0 0.1
2017-Oct-10 00:20N 35°36' E 139°46'0 0.0
2017-Oct-09 23:56N 35°36' E 139°46'0 0.1
2017-Oct-09 23:20N 35°36' E 139°46'0 0.1
2017-Oct-09 23:00N 35°36' E 139°46'1 2.2
2017-Oct-09 22:30N 35°35' E 139°47'9 8.9
2017-Oct-09 21:28N 35°26' E 139°48'612.7
2017-Oct-09 20:59N 35°21' E 139°45'611.6
2017-Oct-09 20:31N 35°16' E 139°47'611.1
2017-Oct-09 20:01N 35°10' E 139°47'510.6
2017-Oct-09 19:30N 35°05' E 139°45'713.2
2017-Oct-09 19:01N 34°59' E 139°42'611.8
2017-Oct-09 18:30N 34°53' E 139°41'611.4
2017-Oct-09 17:59N 34°47' E 139°40'811.5
2017-Oct-09 17:15N 34°39' E 139°38'60 3.1
2017-Oct-08 22:10N 35°02' E 138°31'1 2.3
2017-Oct-08 21:52N 35°02' E 138°31'  
2017-Oct-06 11:03N 33°54' E 134°60'217.6
2017-Oct-06 10:57N 33°56' E 134°59'818.1
2017-Oct-06 10:30N 34°04' E 134°58'917.3
2017-Oct-06 10:01N 34°13' E 134°57'713.9
2017-Oct-06 09:29N 34°20' E 134°59'816.9
2017-Oct-06 09:00N 34°26' E 135°05'  
Track history (hours):
 
Tides and Currents Weather Stations Pressure Air Temp Water Temp Dewpoint Dewpoint Depression Visibility Wind Speed Wind Dir Waves Ship Positions

Silver Mariner

Last reported at 2017-Oct-16 08:44 UTC. Time now 2017-Oct-17 01:24 UTC.
Position N 22°13' E 120°13'.

Length 288 m; draft 8.6 m.

Type: Cargo ship. MMSI: 538004545.

Date/timePositionNaut miles runAvg speedWind from/ knotsBaromVisibWave heightAir tempDewpointWater temp
2017-Oct-16 08:44N 22°13' E 120°13'313.7
2017-Oct-16 08:30N 22°16' E 120°13'713.8
2017-Oct-16 08:00N 22°23' E 120°13'714.4
2017-Oct-16 07:30N 22°30' E 120°13'611.2
2017-Oct-16 07:00N 22°33' E 120°18'1 2.0
2017-Oct-16 06:30N 22°33' E 120°20'0 0.0
2017-Oct-16 06:00N 22°33' E 120°20'0 0.0
2017-Oct-16 05:30N 22°33' E 120°20'0 0.0
2017-Oct-16 05:00N 22°33' E 120°20'0 0.0
2017-Oct-16 04:30N 22°33' E 120°20'0 0.0
2017-Oct-16 04:00N 22°33' E 120°20'0 0.0
2017-Oct-16 03:30N 22°33' E 120°20'0 0.0
2017-Oct-16 03:00N 22°33' E 120°20'0 0.0
2017-Oct-16 02:30N 22°33' E 120°20'0 0.0
2017-Oct-16 02:00N 22°33' E 120°20'0 0.0
2017-Oct-16 01:24N 22°33' E 120°20'0 0.0
2017-Oct-16 01:00N 22°33' E 120°20'0 0.0
2017-Oct-16 00:30N 22°33' E 120°20'0 0.0
2017-Oct-15 23:57N 22°33' E 120°20'0 0.0
2017-Oct-15 23:27N 22°33' E 120°20'0 0.0
2017-Oct-15 23:00N 22°33' E 120°20'3 5.2
2017-Oct-15 22:30N 22°33' E 120°17'4 7.9
2017-Oct-15 22:00N 22°32' E 120°12'4 7.5
2017-Oct-15 21:30N 22°33' E 120°09'1 3.0
2017-Oct-15 21:00N 22°34' E 120°08'2 3.9
2017-Oct-15 20:30N 22°36' E 120°08'713.0
2017-Oct-15 20:00N 22°42' E 120°05'612.9
2017-Oct-15 19:30N 22°48' E 120°02'712.1
2017-Oct-15 18:58N 22°54' E 119°58'  
2017-Oct-12 21:06N 33°52' E 134°57'416.9
2017-Oct-12 20:53N 33°56' E 134°57'616.7
2017-Oct-12 20:30N 34°02' E 134°57'816.6
2017-Oct-12 20:00N 34°11' E 134°57'714.3
2017-Oct-12 19:30N 34°18' E 134°58'816.0
2017-Oct-12 19:00N 34°25' E 135°03'817.0
2017-Oct-12 18:30N 34°30' E 135°11'816.7
2017-Oct-12 18:00N 34°37' E 135°16'4 7.6
2017-Oct-12 17:30N 34°41' E 135°18'0 0.4
2017-Oct-12 16:52N 34°41' E 135°17'0 0.0
2017-Oct-12 16:28N 34°41' E 135°17'0 0.0
2017-Oct-12 15:58N 34°41' E 135°17'0 0.0
2017-Oct-12 15:28N 34°41' E 135°17'0 0.0
2017-Oct-12 14:58N 34°41' E 135°17'0 0.0
2017-Oct-12 14:28N 34°41' E 135°17'0 0.0
2017-Oct-12 13:58N 34°41' E 135°17'0 0.0
2017-Oct-12 13:28N 34°41' E 135°17'0 0.0
2017-Oct-12 12:58N 34°41' E 135°17'0 0.0
2017-Oct-12 12:28N 34°41' E 135°17'0 0.0
2017-Oct-12 11:46N 34°41' E 135°17'0 0.0
2017-Oct-12 11:28N 34°41' E 135°17'0 0.0
2017-Oct-12 10:58N 34°41' E 135°17'0 0.0
2017-Oct-12 10:28N 34°41' E 135°17'0 0.1
2017-Oct-12 10:00N 34°41' E 135°17'2 4.1
2017-Oct-12 09:30N 34°39' E 135°19'3 5.9
2017-Oct-12 09:01N 34°36' E 135°18'5 9.9
2017-Oct-12 08:30N 34°32' E 135°15'714.2
2017-Oct-12 08:00N 34°27' E 135°09'714.2
2017-Oct-12 07:30N 34°22' E 135°03'713.9
2017-Oct-12 07:00N 34°16' E 134°59'612.7
2017-Oct-12 06:30N 34°09' E 134°60'5 9.2
2017-Oct-12 06:00N 34°05' E 134°60'4 7.5
2017-Oct-12 05:30N 34°01' E 135°00'510.5
2017-Oct-12 04:58N 33°55' E 134°60'237 8.2
2017-Oct-11 00:00N 34°55' E 139°38'611.1
2017-Oct-10 23:30N 34°60' E 139°41'510.6
2017-Oct-10 23:00N 35°05' E 139°43'510.7
2017-Oct-10 22:30N 35°10' E 139°45'510.7
2017-Oct-10 22:00N 35°15' E 139°46'612.0
2017-Oct-10 21:30N 35°20' E 139°42'4 7.8
2017-Oct-10 21:00N 35°24' E 139°41'0 0.7
2017-Oct-10 20:27N 35°24' E 139°41'0 0.0
2017-Oct-10 19:57N 35°24' E 139°41'0 0.0
2017-Oct-10 19:27N 35°24' E 139°41'0 0.0
2017-Oct-10 17:57N 35°24' E 139°41'0 0.0
2017-Oct-10 17:21N 35°24' E 139°41'0 0.1
2017-Oct-10 16:57N 35°24' E 139°41'0 0.0
2017-Oct-10 16:09N 35°24' E 139°41'0 0.0
2017-Oct-10 15:57N 35°24' E 139°41'0 0.1
2017-Oct-10 15:15N 35°24' E 139°41'0 0.1
2017-Oct-10 14:45N 35°24' E 139°41'0 0.1
2017-Oct-10 13:57N 35°24' E 139°41'0 0.1
2017-Oct-10 13:27N 35°24' E 139°41'0 0.1
2017-Oct-10 12:57N 35°24' E 139°41'0 0.0
2017-Oct-10 12:27N 35°24' E 139°41'0 0.0
2017-Oct-10 11:45N 35°24' E 139°41'0 0.0
2017-Oct-10 11:27N 35°24' E 139°41'0 0.1
2017-Oct-10 10:51N 35°24' E 139°41'0 0.0
2017-Oct-10 10:21N 35°24' E 139°41'0 0.0
2017-Oct-10 09:57N 35°24' E 139°41'0 0.0
2017-Oct-10 09:27N 35°24' E 139°41'1 1.8
2017-Oct-10 09:00N 35°23' E 139°41'510.8
2017-Oct-10 08:31N 35°27' E 139°46'8 9.8
2017-Oct-10 07:42N 35°35' E 139°48'2 9.2
2017-Oct-10 07:28N 35°36' E 139°46'0 0.3
2017-Oct-10 06:56N 35°36' E 139°46'0 0.0
2017-Oct-10 06:29N 35°36' E 139°46'0 0.0
2017-Oct-10 05:47N 35°36' E 139°46'0 0.0
2017-Oct-10 05:17N 35°36' E 139°46'0 0.0
2017-Oct-10 04:50N 35°36' E 139°46'0 0.0
2017-Oct-10 04:29N 35°36' E 139°46'0 0.1
2017-Oct-10 03:56N 35°36' E 139°46'0 0.1
2017-Oct-10 03:29N 35°36' E 139°46'0 0.0
2017-Oct-10 02:56N 35°36' E 139°46'0 0.0
2017-Oct-10 02:29N 35°36' E 139°46'0 0.1
2017-Oct-10 01:56N 35°36' E 139°46'0 0.0
2017-Oct-10 01:26N 35°36' E 139°46'0 0.0
2017-Oct-10 00:44N 35°36' E 139°46'0 0.1
2017-Oct-10 00:20N 35°36' E 139°46'0 0.0
2017-Oct-09 23:56N 35°36' E 139°46'0 0.1
2017-Oct-09 23:20N 35°36' E 139°46'0 0.1
2017-Oct-09 23:00N 35°36' E 139°46'1 2.2
2017-Oct-09 22:30N 35°35' E 139°47'9 8.9
2017-Oct-09 21:28N 35°26' E 139°48'612.7
2017-Oct-09 20:59N 35°21' E 139°45'611.6
2017-Oct-09 20:31N 35°16' E 139°47'611.1
2017-Oct-09 20:01N 35°10' E 139°47'510.6
2017-Oct-09 19:30N 35°05' E 139°45'713.2
2017-Oct-09 19:01N 34°59' E 139°42'611.8
2017-Oct-09 18:30N 34°53' E 139°41'611.4
2017-Oct-09 17:59N 34°47' E 139°40'811.5
2017-Oct-09 17:15N 34°39' E 139°38'60 3.1
2017-Oct-08 22:10N 35°02' E 138°31'1 2.3
2017-Oct-08 21:52N 35°02' E 138°31'  
2017-Oct-06 11:03N 33°54' E 134°60'217.6
2017-Oct-06 10:57N 33°56' E 134°59'818.1
2017-Oct-06 10:30N 34°04' E 134°58'917.3
2017-Oct-06 10:01N 34°13' E 134°57'713.9
2017-Oct-06 09:29N 34°20' E 134°59'816.9
2017-Oct-06 09:00N 34°26' E 135°05'  

Dump ship's entire track history